sensor_id;sensor_type;location;lat;lon;timestamp;P1;durP1;ratioP1;P2;durP2;ratioP2
16876;SDS011;8555;37.792;29.036;2022-07-01T00:02:15;5.82;;;2.45;;
16876;SDS011;8555;37.792;29.036;2022-07-01T00:04:41;4.38;;;3.10;;
16876;SDS011;8555;37.792;29.036;2022-07-01T00:07:09;3.08;;;2.45;;
16876;SDS011;8555;37.792;29.036;2022-07-01T00:09:37;2.72;;;2.53;;
16876;SDS011;8555;37.792;29.036;2022-07-01T00:12:04;4.07;;;2.33;;
16876;SDS011;8555;37.792;29.036;2022-07-01T00:14:31;3.85;;;2.60;;
16876;SDS011;8555;37.792;29.036;2022-07-01T00:16:59;3.75;;;2.45;;
16876;SDS011;8555;37.792;29.036;2022-07-01T00:19:26;4.50;;;2.70;;
16876;SDS011;8555;37.792;29.036;2022-07-01T00:21:52;4.00;;;2.67;;
16876;SDS011;8555;37.792;29.036;2022-07-01T00:24:19;4.68;;;2.80;;
16876;SDS011;8555;37.792;29.036;2022-07-01T00:26:46;3.95;;;2.95;;
16876;SDS011;8555;37.792;29.036;2022-07-01T00:29:13;5.50;;;3.00;;
16876;SDS011;8555;37.792;29.036;2022-07-01T00:31:39;4.50;;;2.83;;
16876;SDS011;8555;37.792;29.036;2022-07-01T00:34:07;6.97;;;2.95;;
16876;SDS011;8555;37.792;29.036;2022-07-01T00:36:34;4.78;;;2.97;;
16876;SDS011;8555;37.792;29.036;2022-07-01T00:39:01;4.65;;;3.10;;
16876;SDS011;8555;37.792;29.036;2022-07-01T00:41:28;6.60;;;3.28;;
16876;SDS011;8555;37.792;29.036;2022-07-01T00:43:54;6.70;;;3.45;;
16876;SDS011;8555;37.792;29.036;2022-07-01T00:46:22;5.20;;;3.25;;
16876;SDS011;8555;37.792;29.036;2022-07-01T00:48:50;6.75;;;3.20;;
16876;SDS011;8555;37.792;29.036;2022-07-01T00:51:19;7.53;;;3.22;;
16876;SDS011;8555;37.792;29.036;2022-07-01T00:53:45;3.65;;;2.92;;
16876;SDS011;8555;37.792;29.036;2022-07-01T00:56:12;4.07;;;2.97;;
16876;SDS011;8555;37.792;29.036;2022-07-01T00:58:41;3.42;;;2.80;;
16876;SDS011;8555;37.792;29.036;2022-07-01T01:01:07;5.13;;;3.25;;
16876;SDS011;8555;37.792;29.036;2022-07-01T01:03:34;4.97;;;3.00;;
16876;SDS011;8555;37.792;29.036;2022-07-01T01:06:01;3.80;;;3.05;;
16876;SDS011;8555;37.792;29.036;2022-07-01T01:08:30;5.28;;;3.20;;
16876;SDS011;8555;37.792;29.036;2022-07-01T01:10:57;5.20;;;3.03;;
16876;SDS011;8555;37.792;29.036;2022-07-01T01:13:24;4.70;;;3.42;;
16876;SDS011;8555;37.792;29.036;2022-07-01T01:15:51;3.80;;;3.30;;
16876;SDS011;8555;37.792;29.036;2022-07-01T01:18:18;4.10;;;2.80;;
16876;SDS011;8555;37.792;29.036;2022-07-01T01:20:46;4.55;;;3.00;;
16876;SDS011;8555;37.792;29.036;2022-07-01T01:23:13;3.58;;;2.85;;
16876;SDS011;8555;37.792;29.036;2022-07-01T01:25:40;3.35;;;3.03;;
16876;SDS011;8555;37.792;29.036;2022-07-01T01:28:07;3.55;;;2.70;;
16876;SDS011;8555;37.792;29.036;2022-07-01T01:30:33;3.60;;;3.13;;
16876;SDS011;8555;37.792;29.036;2022-07-01T01:33:01;3.55;;;3.25;;
16876;SDS011;8555;37.792;29.036;2022-07-01T01:35:27;3.70;;;3.38;;
16876;SDS011;8555;37.792;29.036;2022-07-01T01:37:55;4.85;;;3.53;;
16876;SDS011;8555;37.792;29.036;2022-07-01T01:40:22;5.90;;;3.47;;
16876;SDS011;8555;37.792;29.036;2022-07-01T01:42:49;5.30;;;3.75;;
16876;SDS011;8555;37.792;29.036;2022-07-01T01:45:16;4.65;;;3.08;;
16876;SDS011;8555;37.792;29.036;2022-07-01T01:47:42;7.13;;;3.38;;
16876;SDS011;8555;37.792;29.036;2022-07-01T01:50:09;4.95;;;3.20;;
16876;SDS011;8555;37.792;29.036;2022-07-01T01:52:37;4.22;;;3.30;;
16876;SDS011;8555;37.792;29.036;2022-07-01T01:55:09;3.75;;;3.45;;
16876;SDS011;8555;37.792;29.036;2022-07-01T01:57:36;4.82;;;3.22;;
16876;SDS011;8555;37.792;29.036;2022-07-01T02:00:04;6.47;;;3.22;;
16876;SDS011;8555;37.792;29.036;2022-07-01T02:02:31;5.63;;;3.35;;
16876;SDS011;8555;37.792;29.036;2022-07-01T02:04:58;6.82;;;3.40;;
16876;SDS011;8555;37.792;29.036;2022-07-01T02:07:25;4.13;;;3.17;;
16876;SDS011;8555;37.792;29.036;2022-07-01T02:09:52;4.93;;;3.28;;
16876;SDS011;8555;37.792;29.036;2022-07-01T02:12:20;8.25;;;3.65;;
16876;SDS011;8555;37.792;29.036;2022-07-01T02:14:46;6.70;;;3.50;;
16876;SDS011;8555;37.792;29.036;2022-07-01T02:17:13;3.75;;;3.42;;
16876;SDS011;8555;37.792;29.036;2022-07-01T02:19:40;7.70;;;3.78;;
16876;SDS011;8555;37.792;29.036;2022-07-01T02:22:06;5.82;;;3.72;;
16876;SDS011;8555;37.792;29.036;2022-07-01T02:24:33;6.80;;;3.90;;
16876;SDS011;8555;37.792;29.036;2022-07-01T02:27:00;5.63;;;3.53;;
16876;SDS011;8555;37.792;29.036;2022-07-01T02:29:28;5.13;;;3.58;;
16876;SDS011;8555;37.792;29.036;2022-07-01T02:31:55;4.50;;;3.72;;
16876;SDS011;8555;37.792;29.036;2022-07-01T02:34:21;6.90;;;4.00;;
16876;SDS011;8555;37.792;29.036;2022-07-01T02:36:48;4.65;;;3.35;;
16876;SDS011;8555;37.792;29.036;2022-07-01T02:39:17;4.80;;;3.50;;
16876;SDS011;8555;37.792;29.036;2022-07-01T02:41:43;5.72;;;3.50;;
16876;SDS011;8555;37.792;29.036;2022-07-01T02:44:35;7.78;;;4.30;;
16876;SDS011;8555;37.792;29.036;2022-07-01T02:47:04;5.22;;;3.45;;
16876;SDS011;8555;37.792;29.036;2022-07-01T02:49:30;5.95;;;3.92;;
16876;SDS011;8555;37.792;29.036;2022-07-01T02:51:57;8.13;;;4.10;;
16876;SDS011;8555;37.792;29.036;2022-07-01T02:54:24;4.57;;;3.80;;
16876;SDS011;8555;37.792;29.036;2022-07-01T02:56:54;5.75;;;3.95;;
16876;SDS011;8555;37.792;29.036;2022-07-01T02:59:20;4.07;;;3.53;;
16876;SDS011;8555;37.792;29.036;2022-07-01T03:01:49;4.32;;;3.92;;
16876;SDS011;8555;37.792;29.036;2022-07-01T03:04:15;5.93;;;4.10;;
16876;SDS011;8555;37.792;29.036;2022-07-01T03:06:44;5.43;;;3.97;;
16876;SDS011;8555;37.792;29.036;2022-07-01T03:09:11;4.32;;;3.92;;
16876;SDS011;8555;37.792;29.036;2022-07-01T03:11:38;4.80;;;4.15;;
16876;SDS011;8555;37.792;29.036;2022-07-01T03:14:04;7.22;;;4.13;;
16876;SDS011;8555;37.792;29.036;2022-07-01T03:16:31;6.72;;;4.47;;
16876;SDS011;8555;37.792;29.036;2022-07-01T03:18:59;5.43;;;4.82;;
16876;SDS011;8555;37.792;29.036;2022-07-01T03:21:26;6.43;;;4.43;;
16876;SDS011;8555;37.792;29.036;2022-07-01T03:23:53;8.52;;;4.47;;
16876;SDS011;8555;37.792;29.036;2022-07-01T03:26:20;6.30;;;4.10;;
16876;SDS011;8555;37.792;29.036;2022-07-01T03:28:47;4.70;;;4.30;;
16876;SDS011;8555;37.792;29.036;2022-07-01T03:31:13;8.27;;;4.13;;
16876;SDS011;8555;37.792;29.036;2022-07-01T03:33:40;6.90;;;4.55;;
16876;SDS011;8555;37.792;29.036;2022-07-01T03:36:09;6.32;;;4.45;;
16876;SDS011;8555;37.792;29.036;2022-07-01T03:38:35;8.02;;;4.63;;
16876;SDS011;8555;37.792;29.036;2022-07-01T03:41:02;8.30;;;4.70;;
16876;SDS011;8555;37.792;29.036;2022-07-01T03:43:29;6.18;;;4.45;;
16876;SDS011;8555;37.792;29.036;2022-07-01T03:45:56;8.00;;;4.43;;
16876;SDS011;8555;37.792;29.036;2022-07-01T03:48:22;19.42;;;5.70;;
16876;SDS011;8555;37.792;29.036;2022-07-01T03:50:51;8.85;;;4.80;;
16876;SDS011;8555;37.792;29.036;2022-07-01T03:53:19;8.05;;;4.43;;
16876;SDS011;8555;37.792;29.036;2022-07-01T03:56:17;7.55;;;4.40;;
16876;SDS011;8555;37.792;29.036;2022-07-01T03:58:44;5.85;;;4.15;;
16876;SDS011;8555;37.792;29.036;2022-07-01T04:01:11;8.27;;;4.70;;
16876;SDS011;8555;37.792;29.036;2022-07-01T04:03:39;7.30;;;4.82;;
16876;SDS011;8555;37.792;29.036;2022-07-01T04:06:05;7.50;;;4.97;;
16876;SDS011;8555;37.792;29.036;2022-07-01T04:08:34;7.78;;;5.05;;
16876;SDS011;8555;37.792;29.036;2022-07-01T04:11:00;6.97;;;4.47;;
16876;SDS011;8555;37.792;29.036;2022-07-01T04:13:29;7.05;;;4.75;;
16876;SDS011;8555;37.792;29.036;2022-07-01T04:16:02;6.15;;;4.90;;
16876;SDS011;8555;37.792;29.036;2022-07-01T04:18:28;6.15;;;4.25;;
16876;SDS011;8555;37.792;29.036;2022-07-01T04:20:55;7.40;;;4.38;;
16876;SDS011;8555;37.792;29.036;2022-07-01T04:23:41;5.50;;;4.22;;
16876;SDS011;8555;37.792;29.036;2022-07-01T04:26:08;7.53;;;4.90;;
16876;SDS011;8555;37.792;29.036;2022-07-01T04:28:34;8.90;;;4.88;;
16876;SDS011;8555;37.792;29.036;2022-07-01T04:31:01;6.80;;;4.88;;
16876;SDS011;8555;37.792;29.036;2022-07-01T04:33:28;8.40;;;4.72;;
16876;SDS011;8555;37.792;29.036;2022-07-01T04:35:54;5.50;;;4.75;;
16876;SDS011;8555;37.792;29.036;2022-07-01T04:38:21;5.03;;;4.53;;
16876;SDS011;8555;37.792;29.036;2022-07-01T04:40:49;8.15;;;4.88;;
16876;SDS011;8555;37.792;29.036;2022-07-01T04:43:30;5.40;;;4.68;;
16876;SDS011;8555;37.792;29.036;2022-07-01T04:45:56;6.88;;;4.93;;
16876;SDS011;8555;37.792;29.036;2022-07-01T04:48:23;10.30;;;4.88;;
16876;SDS011;8555;37.792;29.036;2022-07-01T04:50:50;6.35;;;4.50;;
16876;SDS011;8555;37.792;29.036;2022-07-01T04:53:17;6.22;;;4.97;;
16876;SDS011;8555;37.792;29.036;2022-07-01T04:55:43;10.43;;;5.47;;
16876;SDS011;8555;37.792;29.036;2022-07-01T04:58:11;9.50;;;4.95;;
16876;SDS011;8555;37.792;29.036;2022-07-01T05:00:39;10.63;;;5.30;;
16876;SDS011;8555;37.792;29.036;2022-07-01T05:03:05;8.40;;;4.80;;
16876;SDS011;8555;37.792;29.036;2022-07-01T05:05:32;10.02;;;5.40;;
16876;SDS011;8555;37.792;29.036;2022-07-01T05:07:59;8.73;;;5.35;;
16876;SDS011;8555;37.792;29.036;2022-07-01T05:10:25;14.32;;;5.45;;
16876;SDS011;8555;37.792;29.036;2022-07-01T05:12:53;6.35;;;5.25;;
16876;SDS011;8555;37.792;29.036;2022-07-01T05:15:22;8.85;;;5.38;;
16876;SDS011;8555;37.792;29.036;2022-07-01T05:17:48;6.68;;;5.15;;
16876;SDS011;8555;37.792;29.036;2022-07-01T05:20:32;6.57;;;4.88;;
16876;SDS011;8555;37.792;29.036;2022-07-01T05:23:22;7.72;;;4.82;;
16876;SDS011;8555;37.792;29.036;2022-07-01T05:25:48;5.00;;;4.55;;
16876;SDS011;8555;37.792;29.036;2022-07-01T05:28:15;5.65;;;5.10;;
16876;SDS011;8555;37.792;29.036;2022-07-01T05:30:43;7.38;;;5.72;;
16876;SDS011;8555;37.792;29.036;2022-07-01T05:33:10;14.23;;;5.70;;
16876;SDS011;8555;37.792;29.036;2022-07-01T05:35:37;11.10;;;5.38;;
16876;SDS011;8555;37.792;29.036;2022-07-01T05:38:03;8.75;;;5.43;;
16876;SDS011;8555;37.792;29.036;2022-07-01T05:40:30;5.55;;;4.80;;
16876;SDS011;8555;37.792;29.036;2022-07-01T05:42:57;6.32;;;4.80;;
16876;SDS011;8555;37.792;29.036;2022-07-01T05:45:23;9.93;;;5.38;;
16876;SDS011;8555;37.792;29.036;2022-07-01T05:47:51;6.75;;;4.90;;
16876;SDS011;8555;37.792;29.036;2022-07-01T05:50:18;6.72;;;4.90;;
16876;SDS011;8555;37.792;29.036;2022-07-01T05:52:45;5.30;;;4.80;;
16876;SDS011;8555;37.792;29.036;2022-07-01T05:55:12;9.50;;;5.00;;
16876;SDS011;8555;37.792;29.036;2022-07-01T05:57:39;10.60;;;5.40;;
16876;SDS011;8555;37.792;29.036;2022-07-01T06:00:06;7.95;;;4.97;;
16876;SDS011;8555;37.792;29.036;2022-07-01T06:02:34;7.25;;;5.20;;
16876;SDS011;8555;37.792;29.036;2022-07-01T06:05:02;11.38;;;6.07;;
16876;SDS011;8555;37.792;29.036;2022-07-01T06:07:29;8.25;;;4.93;;
16876;SDS011;8555;37.792;29.036;2022-07-01T06:09:56;9.60;;;5.20;;
16876;SDS011;8555;37.792;29.036;2022-07-01T06:12:23;7.78;;;5.45;;
16876;SDS011;8555;37.792;29.036;2022-07-01T06:14:49;6.28;;;5.15;;
16876;SDS011;8555;37.792;29.036;2022-07-01T06:17:17;10.15;;;5.00;;
16876;SDS011;8555;37.792;29.036;2022-07-01T06:19:43;8.57;;;4.97;;
16876;SDS011;8555;37.792;29.036;2022-07-01T06:22:11;11.25;;;5.20;;
16876;SDS011;8555;37.792;29.036;2022-07-01T06:24:41;13.27;;;5.10;;
16876;SDS011;8555;37.792;29.036;2022-07-01T06:27:09;7.93;;;4.85;;
16876;SDS011;8555;37.792;29.036;2022-07-01T06:29:36;5.40;;;4.32;;
16876;SDS011;8555;37.792;29.036;2022-07-01T06:32:03;5.07;;;4.60;;
16876;SDS011;8555;37.792;29.036;2022-07-01T06:34:30;8.68;;;4.18;;
16876;SDS011;8555;37.792;29.036;2022-07-01T06:36:57;8.27;;;4.20;;
16876;SDS011;8555;37.792;29.036;2022-07-01T06:39:26;8.25;;;4.78;;
16876;SDS011;8555;37.792;29.036;2022-07-01T06:41:53;7.25;;;4.28;;
16876;SDS011;8555;37.792;29.036;2022-07-01T06:44:20;5.32;;;3.92;;
16876;SDS011;8555;37.792;29.036;2022-07-01T06:46:47;9.52;;;3.70;;
16876;SDS011;8555;37.792;29.036;2022-07-01T06:49:13;5.40;;;3.70;;
16876;SDS011;8555;37.792;29.036;2022-07-01T06:51:40;7.70;;;4.15;;
16876;SDS011;8555;37.792;29.036;2022-07-01T06:54:07;10.18;;;4.05;;
16876;SDS011;8555;37.792;29.036;2022-07-01T06:56:35;8.95;;;3.97;;
16876;SDS011;8555;37.792;29.036;2022-07-01T06:59:02;6.38;;;3.80;;
16876;SDS011;8555;37.792;29.036;2022-07-01T07:01:29;8.43;;;3.78;;
16876;SDS011;8555;37.792;29.036;2022-07-01T07:03:55;7.38;;;4.00;;
16876;SDS011;8555;37.792;29.036;2022-07-01T07:06:22;8.55;;;4.07;;
16876;SDS011;8555;37.792;29.036;2022-07-01T07:08:49;7.95;;;4.72;;
16876;SDS011;8555;37.792;29.036;2022-07-01T07:11:15;7.38;;;4.65;;
16876;SDS011;8555;37.792;29.036;2022-07-01T07:13:45;6.50;;;4.00;;
16876;SDS011;8555;37.792;29.036;2022-07-01T07:16:12;8.02;;;4.20;;
16876;SDS011;8555;37.792;29.036;2022-07-01T07:18:39;9.85;;;3.90;;
16876;SDS011;8555;37.792;29.036;2022-07-01T07:21:06;6.53;;;4.32;;
16876;SDS011;8555;37.792;29.036;2022-07-01T07:23:33;6.75;;;3.90;;
16876;SDS011;8555;37.792;29.036;2022-07-01T07:26:01;7.57;;;4.40;;
16876;SDS011;8555;37.792;29.036;2022-07-01T07:28:28;5.97;;;3.92;;
16876;SDS011;8555;37.792;29.036;2022-07-01T07:30:57;13.40;;;6.05;;
16876;SDS011;8555;37.792;29.036;2022-07-01T07:33:24;10.82;;;5.50;;
16876;SDS011;8555;37.792;29.036;2022-07-01T07:35:51;9.88;;;5.57;;
16876;SDS011;8555;37.792;29.036;2022-07-01T07:38:18;8.73;;;5.18;;
16876;SDS011;8555;37.792;29.036;2022-07-01T07:40:45;22.77;;;5.65;;
16876;SDS011;8555;37.792;29.036;2022-07-01T07:43:12;5.93;;;4.20;;
16876;SDS011;8555;37.792;29.036;2022-07-01T07:45:39;24.80;;;5.65;;
16876;SDS011;8555;37.792;29.036;2022-07-01T07:48:07;8.82;;;4.18;;
16876;SDS011;8555;37.792;29.036;2022-07-01T07:50:34;6.55;;;4.20;;
16876;SDS011;8555;37.792;29.036;2022-07-01T07:53:01;9.52;;;4.20;;
16876;SDS011;8555;37.792;29.036;2022-07-01T07:55:28;8.05;;;3.95;;
16876;SDS011;8555;37.792;29.036;2022-07-01T07:57:55;18.85;;;4.32;;
16876;SDS011;8555;37.792;29.036;2022-07-01T08:00:22;12.45;;;4.60;;
16876;SDS011;8555;37.792;29.036;2022-07-01T08:02:48;7.00;;;3.67;;
16876;SDS011;8555;37.792;29.036;2022-07-01T08:05:16;11.25;;;5.20;;
16876;SDS011;8555;37.792;29.036;2022-07-01T08:07:43;5.70;;;4.07;;
16876;SDS011;8555;37.792;29.036;2022-07-01T08:10:11;8.52;;;4.40;;
16876;SDS011;8555;37.792;29.036;2022-07-01T08:12:39;5.47;;;4.03;;
16876;SDS011;8555;37.792;29.036;2022-07-01T08:15:06;5.78;;;4.22;;
16876;SDS011;8555;37.792;29.036;2022-07-01T08:17:33;6.43;;;4.13;;
16876;SDS011;8555;37.792;29.036;2022-07-01T08:20:00;8.07;;;4.10;;
16876;SDS011;8555;37.792;29.036;2022-07-01T08:22:28;8.05;;;4.05;;
16876;SDS011;8555;37.792;29.036;2022-07-01T08:24:55;7.05;;;3.78;;
16876;SDS011;8555;37.792;29.036;2022-07-01T08:27:22;10.07;;;4.22;;
16876;SDS011;8555;37.792;29.036;2022-07-01T08:29:48;8.63;;;5.88;;
16876;SDS011;8555;37.792;29.036;2022-07-01T08:32:15;14.85;;;4.85;;
16876;SDS011;8555;37.792;29.036;2022-07-01T08:34:43;9.15;;;4.35;;
16876;SDS011;8555;37.792;29.036;2022-07-01T08:37:10;5.75;;;3.45;;
16876;SDS011;8555;37.792;29.036;2022-07-01T08:39:38;14.82;;;4.00;;
16876;SDS011;8555;37.792;29.036;2022-07-01T08:42:05;10.07;;;4.28;;
16876;SDS011;8555;37.792;29.036;2022-07-01T08:44:33;6.85;;;3.75;;
16876;SDS011;8555;37.792;29.036;2022-07-01T08:46:59;5.43;;;4.13;;
16876;SDS011;8555;37.792;29.036;2022-07-01T08:49:26;10.15;;;4.22;;
16876;SDS011;8555;37.792;29.036;2022-07-01T08:51:53;5.70;;;3.78;;
16876;SDS011;8555;37.792;29.036;2022-07-01T08:54:20;6.28;;;3.40;;
16876;SDS011;8555;37.792;29.036;2022-07-01T08:56:48;5.47;;;3.97;;
16876;SDS011;8555;37.792;29.036;2022-07-01T08:59:21;5.55;;;3.90;;
16876;SDS011;8555;37.792;29.036;2022-07-01T09:01:53;5.38;;;3.45;;
16876;SDS011;8555;37.792;29.036;2022-07-01T09:04:20;4.50;;;3.92;;
16876;SDS011;8555;37.792;29.036;2022-07-01T09:06:47;4.50;;;4.10;;
16876;SDS011;8555;37.792;29.036;2022-07-01T09:09:15;5.60;;;4.07;;
16876;SDS011;8555;37.792;29.036;2022-07-01T09:11:45;4.85;;;3.83;;
16876;SDS011;8555;37.792;29.036;2022-07-01T09:14:14;5.78;;;3.88;;
16876;SDS011;8555;37.792;29.036;2022-07-01T09:16:41;4.97;;;4.03;;
16876;SDS011;8555;37.792;29.036;2022-07-01T09:19:08;6.65;;;3.95;;
16876;SDS011;8555;37.792;29.036;2022-07-01T09:21:35;7.00;;;4.20;;
16876;SDS011;8555;37.792;29.036;2022-07-01T09:24:02;6.60;;;3.88;;
16876;SDS011;8555;37.792;29.036;2022-07-01T09:26:29;5.35;;;3.90;;
16876;SDS011;8555;37.792;29.036;2022-07-01T09:28:56;5.07;;;4.10;;
16876;SDS011;8555;37.792;29.036;2022-07-01T09:31:30;5.10;;;3.83;;
16876;SDS011;8555;37.792;29.036;2022-07-01T09:34:04;3.95;;;3.50;;
16876;SDS011;8555;37.792;29.036;2022-07-01T09:36:31;6.53;;;4.25;;
16876;SDS011;8555;37.792;29.036;2022-07-01T09:39:02;10.27;;;4.72;;
16876;SDS011;8555;37.792;29.036;2022-07-01T09:41:32;5.07;;;4.03;;
16876;SDS011;8555;37.792;29.036;2022-07-01T09:44:03;5.38;;;3.92;;
16876;SDS011;8555;37.792;29.036;2022-07-01T09:46:31;6.25;;;3.88;;
16876;SDS011;8555;37.792;29.036;2022-07-01T09:48:58;3.75;;;3.33;;
16876;SDS011;8555;37.792;29.036;2022-07-01T09:51:26;4.10;;;3.47;;
16876;SDS011;8555;37.792;29.036;2022-07-01T09:53:52;11.15;;;3.78;;
16876;SDS011;8555;37.792;29.036;2022-07-01T09:56:21;7.43;;;4.22;;
16876;SDS011;8555;37.792;29.036;2022-07-01T09:58:47;7.55;;;4.05;;
16876;SDS011;8555;37.792;29.036;2022-07-01T10:01:14;7.07;;;4.13;;
16876;SDS011;8555;37.792;29.036;2022-07-01T10:03:43;5.20;;;3.95;;
16876;SDS011;8555;37.792;29.036;2022-07-01T10:06:19;7.43;;;3.92;;
16876;SDS011;8555;37.792;29.036;2022-07-01T10:08:55;4.88;;;3.50;;
16876;SDS011;8555;37.792;29.036;2022-07-01T10:11:30;4.45;;;3.60;;
16876;SDS011;8555;37.792;29.036;2022-07-01T10:14:04;7.60;;;3.80;;
16876;SDS011;8555;37.792;29.036;2022-07-01T10:16:31;5.82;;;3.40;;
16876;SDS011;8555;37.792;29.036;2022-07-01T10:19:00;6.25;;;3.70;;
16876;SDS011;8555;37.792;29.036;2022-07-01T10:21:32;4.78;;;4.05;;
16876;SDS011;8555;37.792;29.036;2022-07-01T10:24:10;4.95;;;3.60;;
16876;SDS011;8555;37.792;29.036;2022-07-01T10:26:37;4.40;;;3.78;;
16876;SDS011;8555;37.792;29.036;2022-07-01T10:29:04;7.60;;;4.05;;
16876;SDS011;8555;37.792;29.036;2022-07-01T10:31:34;9.65;;;3.92;;
16876;SDS011;8555;37.792;29.036;2022-07-01T10:34:03;8.10;;;3.78;;
16876;SDS011;8555;37.792;29.036;2022-07-01T10:36:30;8.82;;;4.05;;
16876;SDS011;8555;37.792;29.036;2022-07-01T10:42:05;5.60;;;3.45;;
16876;SDS011;8555;37.792;29.036;2022-07-01T10:44:34;4.25;;;3.78;;
16876;SDS011;8555;37.792;29.036;2022-07-01T10:47:03;9.82;;;3.80;;
16876;SDS011;8555;37.792;29.036;2022-07-01T10:52:16;4.47;;;3.45;;
16876;SDS011;8555;37.792;29.036;2022-07-01T10:54:46;5.63;;;3.30;;
16876;SDS011;8555;37.792;29.036;2022-07-01T10:57:21;5.40;;;3.22;;
16876;SDS011;8555;37.792;29.036;2022-07-01T10:59:49;3.10;;;2.80;;
16876;SDS011;8555;37.792;29.036;2022-07-01T11:02:16;4.25;;;3.45;;
16876;SDS011;8555;37.792;29.036;2022-07-01T11:04:43;9.85;;;2.95;;
16876;SDS011;8555;37.792;29.036;2022-07-01T11:07:10;6.18;;;3.58;;
16876;SDS011;8555;37.792;29.036;2022-07-01T11:09:38;7.13;;;3.20;;
16876;SDS011;8555;37.792;29.036;2022-07-01T11:12:06;8.70;;;3.42;;
16876;SDS011;8555;37.792;29.036;2022-07-01T11:14:33;5.55;;;3.72;;
16876;SDS011;8555;37.792;29.036;2022-07-01T11:17:00;9.13;;;4.35;;
16876;SDS011;8555;37.792;29.036;2022-07-01T11:19:27;8.02;;;4.32;;
16876;SDS011;8555;37.792;29.036;2022-07-01T11:21:54;5.97;;;4.00;;
16876;SDS011;8555;37.792;29.036;2022-07-01T11:24:22;5.18;;;3.58;;
16876;SDS011;8555;37.792;29.036;2022-07-01T11:26:51;5.93;;;3.53;;
16876;SDS011;8555;37.792;29.036;2022-07-01T11:29:24;4.78;;;3.35;;
16876;SDS011;8555;37.792;29.036;2022-07-01T11:31:51;5.45;;;3.60;;
16876;SDS011;8555;37.792;29.036;2022-07-01T11:34:18;9.30;;;3.88;;
16876;SDS011;8555;37.792;29.036;2022-07-01T11:36:45;7.28;;;3.95;;
16876;SDS011;8555;37.792;29.036;2022-07-01T11:39:29;5.88;;;3.58;;
16876;SDS011;8555;37.792;29.036;2022-07-01T11:42:00;6.70;;;3.55;;
16876;SDS011;8555;37.792;29.036;2022-07-01T11:44:29;5.90;;;3.40;;
16876;SDS011;8555;37.792;29.036;2022-07-01T11:46:56;5.70;;;3.50;;
16876;SDS011;8555;37.792;29.036;2022-07-01T11:49:22;6.93;;;3.60;;
16876;SDS011;8555;37.792;29.036;2022-07-01T11:51:53;6.13;;;3.65;;
16876;SDS011;8555;37.792;29.036;2022-07-01T11:54:20;7.80;;;4.72;;
16876;SDS011;8555;37.792;29.036;2022-07-01T11:56:47;4.82;;;3.75;;
16876;SDS011;8555;37.792;29.036;2022-07-01T11:59:16;6.18;;;3.63;;
16876;SDS011;8555;37.792;29.036;2022-07-01T12:01:48;20.30;;;4.82;;
16876;SDS011;8555;37.792;29.036;2022-07-01T12:04:16;8.85;;;3.13;;
16876;SDS011;8555;37.792;29.036;2022-07-01T12:06:43;3.15;;;2.80;;
16876;SDS011;8555;37.792;29.036;2022-07-01T12:09:11;4.05;;;2.80;;
16876;SDS011;8555;37.792;29.036;2022-07-01T12:11:39;5.95;;;3.00;;
16876;SDS011;8555;37.792;29.036;2022-07-01T12:14:09;4.90;;;3.10;;
16876;SDS011;8555;37.792;29.036;2022-07-01T12:16:40;7.72;;;4.95;;
16876;SDS011;8555;37.792;29.036;2022-07-01T12:19:07;5.85;;;3.47;;
16876;SDS011;8555;37.792;29.036;2022-07-01T12:21:46;12.52;;;4.00;;
16876;SDS011;8555;37.792;29.036;2022-07-01T12:24:14;4.68;;;3.20;;
16876;SDS011;8555;37.792;29.036;2022-07-01T12:26:47;3.83;;;3.30;;
16876;SDS011;8555;37.792;29.036;2022-07-01T12:29:14;8.00;;;3.72;;
16876;SDS011;8555;37.792;29.036;2022-07-01T12:31:43;8.20;;;4.28;;
16876;SDS011;8555;37.792;29.036;2022-07-01T12:34:09;5.97;;;3.88;;
16876;SDS011;8555;37.792;29.036;2022-07-01T12:36:36;7.70;;;3.05;;
16876;SDS011;8555;37.792;29.036;2022-07-01T12:39:04;9.98;;;4.45;;
16876;SDS011;8555;37.792;29.036;2022-07-01T12:41:31;10.63;;;4.45;;
16876;SDS011;8555;37.792;29.036;2022-07-01T12:43:59;10.82;;;4.88;;
16876;SDS011;8555;37.792;29.036;2022-07-01T12:46:27;12.20;;;4.72;;
16876;SDS011;8555;37.792;29.036;2022-07-01T12:48:55;7.85;;;3.47;;
16876;SDS011;8555;37.792;29.036;2022-07-01T12:51:28;5.80;;;3.28;;
16876;SDS011;8555;37.792;29.036;2022-07-01T12:53:54;6.38;;;3.10;;
16876;SDS011;8555;37.792;29.036;2022-07-01T12:56:21;5.72;;;2.80;;
16876;SDS011;8555;37.792;29.036;2022-07-01T12:58:51;4.95;;;2.67;;
16876;SDS011;8555;37.792;29.036;2022-07-01T13:01:18;14.93;;;4.72;;
16876;SDS011;8555;37.792;29.036;2022-07-01T13:03:45;4.07;;;2.70;;
16876;SDS011;8555;37.792;29.036;2022-07-01T13:06:13;4.00;;;2.63;;
16876;SDS011;8555;37.792;29.036;2022-07-01T13:08:40;5.20;;;3.35;;
16876;SDS011;8555;37.792;29.036;2022-07-01T13:11:07;3.15;;;2.67;;
16876;SDS011;8555;37.792;29.036;2022-07-01T13:13:34;4.82;;;2.75;;
16876;SDS011;8555;37.792;29.036;2022-07-01T13:16:00;6.50;;;2.85;;
16876;SDS011;8555;37.792;29.036;2022-07-01T13:18:27;3.35;;;2.60;;
16876;SDS011;8555;37.792;29.036;2022-07-01T13:20:54;7.15;;;2.75;;
16876;SDS011;8555;37.792;29.036;2022-07-01T13:23:22;5.72;;;2.70;;
16876;SDS011;8555;37.792;29.036;2022-07-01T13:25:49;6.82;;;2.83;;
16876;SDS011;8555;37.792;29.036;2022-07-01T13:28:16;6.13;;;2.88;;
16876;SDS011;8555;37.792;29.036;2022-07-01T13:30:42;3.00;;;2.70;;
16876;SDS011;8555;37.792;29.036;2022-07-01T13:33:09;6.25;;;2.90;;
16876;SDS011;8555;37.792;29.036;2022-07-01T13:35:36;5.05;;;2.53;;
16876;SDS011;8555;37.792;29.036;2022-07-01T13:38:02;4.22;;;2.58;;
16876;SDS011;8555;37.792;29.036;2022-07-01T13:40:31;2.97;;;2.47;;
16876;SDS011;8555;37.792;29.036;2022-07-01T13:42:57;12.18;;;3.05;;
16876;SDS011;8555;37.792;29.036;2022-07-01T13:45:24;5.88;;;2.60;;
16876;SDS011;8555;37.792;29.036;2022-07-01T13:47:51;5.47;;;2.50;;
16876;SDS011;8555;37.792;29.036;2022-07-01T13:50:19;3.45;;;2.40;;
16876;SDS011;8555;37.792;29.036;2022-07-01T13:52:46;6.18;;;2.78;;
16876;SDS011;8555;37.792;29.036;2022-07-01T13:55:13;5.93;;;2.40;;
16876;SDS011;8555;37.792;29.036;2022-07-01T13:57:41;7.28;;;2.08;;
16876;SDS011;8555;37.792;29.036;2022-07-01T14:00:08;3.90;;;2.20;;
16876;SDS011;8555;37.792;29.036;2022-07-01T14:02:35;5.25;;;2.70;;
16876;SDS011;8555;37.792;29.036;2022-07-01T14:05:02;3.22;;;2.13;;
16876;SDS011;8555;37.792;29.036;2022-07-01T14:07:30;6.55;;;2.20;;
16876;SDS011;8555;37.792;29.036;2022-07-01T14:09:56;3.53;;;2.22;;
16876;SDS011;8555;37.792;29.036;2022-07-01T14:12:23;8.75;;;2.97;;
16876;SDS011;8555;37.792;29.036;2022-07-01T14:14:51;3.75;;;2.90;;
16876;SDS011;8555;37.792;29.036;2022-07-01T14:17:19;2.60;;;2.40;;
16876;SDS011;8555;37.792;29.036;2022-07-01T14:19:45;3.72;;;2.30;;
16876;SDS011;8555;37.792;29.036;2022-07-01T14:22:12;4.47;;;2.33;;
16876;SDS011;8555;37.792;29.036;2022-07-01T14:24:39;5.40;;;2.55;;
16876;SDS011;8555;37.792;29.036;2022-07-01T14:27:06;4.38;;;2.30;;
16876;SDS011;8555;37.792;29.036;2022-07-01T14:29:32;3.15;;;2.15;;
16876;SDS011;8555;37.792;29.036;2022-07-01T14:32:01;3.45;;;2.22;;
16876;SDS011;8555;37.792;29.036;2022-07-01T14:34:28;3.78;;;2.28;;
16876;SDS011;8555;37.792;29.036;2022-07-01T14:36:54;4.07;;;2.15;;
16876;SDS011;8555;37.792;29.036;2022-07-01T14:39:21;4.88;;;2.58;;
16876;SDS011;8555;37.792;29.036;2022-07-01T14:41:48;5.03;;;2.00;;
16876;SDS011;8555;37.792;29.036;2022-07-01T14:44:16;5.28;;;2.33;;
16876;SDS011;8555;37.792;29.036;2022-07-01T14:46:43;14.50;;;2.90;;
16876;SDS011;8555;37.792;29.036;2022-07-01T14:49:11;9.90;;;2.58;;
16876;SDS011;8555;37.792;29.036;2022-07-01T14:51:39;5.95;;;2.00;;
16876;SDS011;8555;37.792;29.036;2022-07-01T14:54:06;5.05;;;2.28;;
16876;SDS011;8555;37.792;29.036;2022-07-01T14:56:33;6.80;;;2.20;;